Time;durP1;ratioP1;P1;durP2;ratioP2;P2;SDS_P1;SDS_P2;PMS_P1;PMS_P2;Temp;Humidity;BMP_temperature;BMP_pressure;BME280_temperature;BME280_humidity;BME280_pressure;Samples;Min_cycle;Max_cycle;Signal;HPM_P1;HPM_P2
2020/12/20 00:01:46;;;;;;;2.72;1.73;;;17.20;69.50;;;;;;10498753;28;20096;-60
2020/12/20 00:06:47;;;;;;;2.20;1.25;;;17.10;69.40;;;;;;10498738;28;20122;-60
2020/12/20 00:11:52;;;;;;;2.72;1.73;;;17.10;69.50;;;;;;10498791;28;20120;-60
2020/12/20 00:17:07;;;;;;;2.95;1.77;;;17.10;69.50;;;;;;10488849;28;20139;-61
2020/12/20 00:22:13;;;;;;;1.95;1.25;;;17.10;69.50;;;;;;10498322;28;20107;-61
2020/12/20 00:27:14;;;;;;;2.00;1.38;;;17.00;69.40;;;;;;10497977;28;20093;-62
2020/12/20 00:32:15;;;;;;;2.53;1.60;;;17.00;69.40;;;;;;10494622;28;20060;-61
2020/12/20 00:37:16;;;;;;;1.63;1.30;;;17.00;69.50;;;;;;10479114;28;20556;-61
2020/12/20 00:42:17;;;;;;;2.78;1.80;;;17.00;69.50;;;;;;10483463;28;20039;-61
2020/12/20 00:47:18;;;;;;;3.53;2.25;;;17.00;69.50;;;;;;10497443;28;20381;-61
2020/12/20 00:52:18;;;;;;;3.78;1.80;;;17.00;69.50;;;;;;10496977;28;20028;-62
2020/12/20 00:57:19;;;;;;;3.22;1.55;;;17.00;69.40;;;;;;10497365;28;20464;-61
2020/12/20 01:02:20;;;;;;;3.05;1.30;;;17.00;69.60;;;;;;10497123;28;20206;-62
2020/12/20 01:07:20;;;;;;;2.40;1.48;;;16.90;69.40;;;;;;10495400;28;20575;-62
2020/12/20 01:12:21;;;;;;;2.55;1.40;;;16.90;69.50;;;;;;10496840;28;20115;-61
2020/12/20 01:17:22;;;;;;;2.13;1.45;;;16.90;69.50;;;;;;10496795;28;20024;-61
2020/12/20 01:22:22;;;;;;;3.13;1.58;;;16.90;69.60;;;;;;10496564;28;20100;-61
2020/12/20 01:27:23;;;;;;;3.95;1.50;;;16.90;69.50;;;;;;10496605;28;20071;-61
2020/12/20 01:32:24;;;;;;;4.40;1.77;;;16.90;69.60;;;;;;10512128;28;20178;-61
2020/12/20 01:37:24;;;;;;;3.13;1.83;;;16.80;70.10;;;;;;10496193;28;20067;-61
2020/12/20 01:42:25;;;;;;;2.67;1.42;;;16.80;70.10;;;;;;10496263;28;20033;-61
2020/12/20 01:47:29;;;;;;;2.30;1.30;;;16.80;69.60;;;;;;10494624;28;20040;-60
2020/12/20 01:52:31;;;;;;;2.17;1.30;;;16.80;69.50;;;;;;10501239;28;20071;-60
2020/12/20 01:57:33;;;;;;;2.60;1.40;;;16.80;69.60;;;;;;10502562;28;20088;-61
2020/12/20 02:02:34;;;;;;;2.30;1.58;;;16.80;69.60;;;;;;10503711;28;20028;-61
2020/12/20 02:07:35;;;;;;;2.60;1.30;;;16.80;69.60;;;;;;10503281;28;20376;-61
2020/12/20 02:12:35;;;;;;;2.25;1.40;;;16.80;69.50;;;;;;10503433;28;20093;-61
2020/12/20 02:17:36;;;;;;;2.22;1.30;;;16.80;70.20;;;;;;10503227;28;20104;-61
2020/12/20 02:22:37;;;;;;;2.53;1.55;;;16.70;69.60;;;;;;10503029;28;20036;-61
2020/12/20 02:27:38;;;;;;;2.25;1.35;;;16.70;69.60;;;;;;10501708;28;20035;-61
2020/12/20 02:32:39;;;;;;;1.83;1.20;;;16.70;69.60;;;;;;10502560;28;20116;-61
2020/12/20 02:37:39;;;;;;;2.35;1.40;;;16.70;69.60;;;;;;10502317;28;20025;-61
2020/12/20 02:42:40;;;;;;;2.45;1.65;;;16.70;69.50;;;;;;10502079;28;20028;-60
2020/12/20 02:47:41;;;;;;;2.92;1.27;;;16.70;69.60;;;;;;10502061;28;20107;-61
2020/12/20 02:52:41;;;;;;;1.88;1.08;;;16.70;69.60;;;;;;10501663;28;20032;-61
2020/12/20 02:57:42;;;;;;;1.83;1.17;;;16.60;69.60;;;;;;10501670;28;20443;-61
2020/12/20 03:02:43;;;;;;;3.10;1.52;;;16.60;69.60;;;;;;10500538;28;20036;-61
2020/12/20 03:07:45;;;;;;;2.83;1.45;;;16.70;69.60;;;;;;10501015;28;20119;-61
2020/12/20 03:12:46;;;;;;;2.28;1.30;;;16.60;69.60;;;;;;10500909;28;20025;-61
2020/12/20 03:17:46;;;;;;;2.17;1.27;;;16.60;69.60;;;;;;10501059;28;20115;-61
2020/12/20 03:22:47;;;;;;;1.55;0.98;;;16.60;70.20;;;;;;10500735;28;20028;-61
2020/12/20 03:27:48;;;;;;;3.42;1.77;;;16.60;69.70;;;;;;10500645;28;20066;-61
2020/12/20 03:32:49;;;;;;;2.20;1.20;;;16.60;69.60;;;;;;10500530;28;20414;-61
2020/12/20 03:37:55;;;;;;;3.28;1.50;;;16.60;69.60;;;;;;10499548;28;20119;-61
2020/12/20 03:42:56;;;;;;;1.60;1.08;;;16.60;69.60;;;;;;10497992;28;20033;-60
2020/12/20 03:47:56;;;;;;;3.20;1.30;;;16.50;69.60;;;;;;10499542;28;20467;-60
2020/12/20 03:52:58;;;;;;;1.10;0.70;;;16.50;69.60;;;;;;10498652;28;20526;-61
2020/12/20 03:57:59;;;;;;;1.95;1.30;;;16.50;69.60;;;;;;10490207;28;20017;-61
2020/12/20 04:02:59;;;;;;;3.05;1.30;;;16.50;69.60;;;;;;10497656;28;20035;-60
2020/12/20 04:08:00;;;;;;;1.95;1.30;;;16.50;69.60;;;;;;10498739;28;20067;-60
2020/12/20 04:13:00;;;;;;;1.65;1.10;;;16.50;69.60;;;;;;10497285;28;20036;-61
2020/12/20 04:18:01;;;;;;;2.70;1.50;;;16.50;69.60;;;;;;10497166;28;20103;-60
2020/12/20 04:23:03;;;;;;;1.98;1.30;;;16.40;69.60;;;;;;10497106;28;20078;-61
2020/12/20 04:28:04;;;;;;;2.60;1.20;;;16.50;69.60;;;;;;10498110;28;20625;-61
2020/12/20 04:33:04;;;;;;;2.10;1.38;;;16.40;69.60;;;;;;10498320;28;20093;-61
2020/12/20 04:38:05;;;;;;;2.67;1.70;;;16.40;69.70;;;;;;10497782;28;20465;-61
2020/12/20 04:43:09;;;;;;;1.33;0.93;;;16.40;69.60;;;;;;10497626;28;20361;-58
2020/12/20 04:48:11;;;;;;;1.58;1.13;;;16.40;69.50;;;;;;10497266;28;20028;-61
2020/12/20 04:53:13;;;;;;;1.77;1.20;;;16.40;69.70;;;;;;10497352;28;20028;-61
2020/12/20 04:58:14;;;;;;;2.08;1.00;;;16.40;69.70;;;;;;10492812;28;20468;-61
2020/12/20 05:03:14;;;;;;;1.30;0.98;;;16.40;69.60;;;;;;10495536;28;20036;-61
2020/12/20 05:08:21;;;;;;;1.67;1.08;;;16.30;69.60;;;;;;10496910;28;20544;-61
2020/12/20 05:13:22;;;;;;;1.38;1.10;;;16.30;69.60;;;;;;10497112;28;20059;-61
2020/12/20 05:18:22;;;;;;;1.90;1.30;;;16.30;69.60;;;;;;10495411;28;20028;-62
2020/12/20 05:23:29;;;;;;;2.72;1.65;;;16.30;69.70;;;;;;10493535;28;20555;-60
2020/12/20 05:28:30;;;;;;;2.20;1.10;;;16.30;69.60;;;;;;10494548;28;20532;-61
2020/12/20 05:33:31;;;;;;;2.45;1.30;;;16.30;69.70;;;;;;10493786;28;20116;-60
2020/12/20 05:38:34;;;;;;;1.05;0.82;;;16.30;69.70;;;;;;10491104;28;20044;-60
2020/12/20 05:43:34;;;;;;;2.17;1.25;;;16.30;69.70;;;;;;10494942;28;20021;-61
2020/12/20 05:48:35;;;;;;;1.88;1.45;;;16.30;69.70;;;;;;10495352;28;20111;-61
2020/12/20 05:53:36;;;;;;;2.10;1.42;;;16.30;69.70;;;;;;10495047;28;20158;-61
2020/12/20 05:58:36;;;;;;;1.92;1.30;;;16.30;69.70;;;;;;10489240;28;20032;-61
2020/12/20 06:03:37;;;;;;;1.70;1.05;;;16.20;69.70;;;;;;10485973;28;20112;-61
2020/12/20 06:08:40;;;;;;;2.25;1.27;;;16.30;69.70;;;;;;10476653;28;20052;-61
2020/12/20 06:13:45;;;;;;;1.92;1.30;;;16.20;69.70;;;;;;10491288;28;20028;-61
2020/12/20 06:18:50;;;;;;;1.60;1.02;;;16.20;69.70;;;;;;10494128;28;20033;-59
2020/12/20 06:23:57;;;;;;;2.58;1.30;;;16.20;69.70;;;;;;10493638;28;20040;-60
2020/12/20 06:29:03;;;;;;;1.27;0.88;;;16.20;69.20;;;;;;10491201;28;20032;-60
2020/12/20 06:34:04;;;;;;;1.60;1.00;;;16.20;69.10;;;;;;10492792;28;20049;-60
2020/12/20 06:39:05;;;;;;;1.42;1.00;;;16.50;68.30;;;;;;10487000;28;20532;-61
2020/12/20 06:44:15;;;;;;;1.17;0.90;;;17.10;66.50;;;;;;10500181;28;20096;-61
2020/12/20 06:49:36;;;;;;;2.40;0.93;;;17.50;65.10;;;;;;10491744;28;20044;-61
2020/12/20 06:54:37;;;;;;;1.45;0.82;;;17.90;64.40;;;;;;10501892;28;20039;-61
2020/12/20 06:59:44;;;;;;;3.20;0.93;;;18.00;63.90;;;;;;10500646;28;20016;-61
2020/12/20 07:04:44;;;;;;;1.83;0.90;;;19.20;67.00;;;;;;10501574;28;20133;-62
2020/12/20 07:09:45;;;;;;;2.50;0.93;;;24.30;51.90;;;;;;10501624;28;20170;-61
2020/12/20 07:14:45;;;;;;;2.58;0.73;;;26.50;46.30;;;;;;10501322;28;20024;-61
2020/12/20 07:20:12;;;;;;;8.80;1.42;;;27.10;44.60;;;;;;10500926;28;20023;-61
2020/12/20 07:25:14;;;;;;;4.57;0.90;;;27.50;43.80;;;;;;10500937;28;20166;-61
2020/12/20 07:30:14;;;;;;;9.15;1.35;;;27.70;43.30;;;;;;10499389;28;20047;-60
2020/12/20 07:35:15;;;;;;;3.05;1.10;;;27.90;42.40;;;;;;10500265;28;20039;-60
2020/12/20 07:40:18;;;;;;;12.55;1.77;;;27.80;42.80;;;;;;10474953;28;20024;-58
2020/12/20 07:45:19;;;;;;;7.10;1.67;;;27.80;42.60;;;;;;10478962;28;20032;-59
2020/12/20 07:50:26;;;;;;;9.40;1.40;;;28.00;42.40;;;;;;10462702;28;20090;-58
2020/12/20 07:55:27;;;;;;;6.32;1.25;;;28.10;41.80;;;;;;10459497;28;20021;-58
2020/12/20 08:00:28;;;;;;;12.02;1.77;;;27.90;42.40;;;;;;10476887;28;20100;-58
2020/12/20 08:05:28;;;;;;;5.28;1.65;;;28.00;42.00;;;;;;10462739;28;20120;-57
2020/12/20 08:10:29;;;;;;;13.60;1.88;;;27.90;42.10;;;;;;10492021;28;20103;-58
2020/12/20 08:15:29;;;;;;;6.85;1.60;;;26.90;41.70;;;;;;10495059;28;20024;-57
2020/12/20 08:20:30;;;;;;;7.70;1.75;;;22.60;50.50;;;;;;10498064;28;20040;-59
2020/12/20 08:25:31;;;;;;;9.57;1.88;;;20.40;56.70;;;;;;10490084;28;20082;-58
2020/12/20 08:30:35;;;;;;;8.25;1.70;;;19.40;60.00;;;;;;10489274;28;20099;-59
2020/12/20 08:35:36;;;;;;;6.30;1.42;;;18.90;61.70;;;;;;10491451;28;20289;-57
2020/12/20 08:40:36;;;;;;;7.18;1.70;;;18.70;62.70;;;;;;10494233;28;20109;-59
2020/12/20 08:45:39;;;;;;;7.55;1.65;;;18.40;63.40;;;;;;10495678;28;20036;-59
2020/12/20 08:50:40;;;;;;;3.78;1.13;;;18.30;64.10;;;;;;10496353;28;20067;-58
2020/12/20 08:55:41;;;;;;;5.30;1.58;;;18.20;64.40;;;;;;10497245;28;20108;-58
2020/12/20 09:00:41;;;;;;;6.28;1.67;;;18.20;65.20;;;;;;10494919;28;20052;-58
2020/12/20 09:05:42;;;;;;;6.68;1.48;;;18.10;64.70;;;;;;10496311;28;20178;-59
2020/12/20 09:10:42;;;;;;;3.60;1.25;;;18.10;65.00;;;;;;10496621;28;20021;-58
2020/12/20 09:15:43;;;;;;;2.78;1.27;;;18.10;65.10;;;;;;10496513;28;20124;-58
2020/12/20 09:20:45;;;;;;;4.13;1.55;;;18.10;65.30;;;;;;10494999;28;20119;-56
2020/12/20 09:25:47;;;;;;;3.10;0.90;;;18.00;65.40;;;;;;10496077;28;20111;-58
2020/12/20 09:30:54;;;;;;;1.98;1.10;;;18.10;65.30;;;;;;10494665;28;20465;-58
2020/12/20 09:36:18;;;;;;;2.67;1.10;;;18.00;65.40;;;;;;10496267;28;20071;-58
2020/12/20 09:41:30;;;;;;;2.97;1.08;;;18.00;65.60;;;;;;10494998;28;20032;-58
2020/12/20 09:46:38;;;;;;;2.78;1.38;;;17.90;65.80;;;;;;10495996;28;20384;-58
2020/12/20 09:51:39;;;;;;;2.45;1.35;;;18.00;65.60;;;;;;10495557;28;20052;-59
2020/12/20 09:56:41;;;;;;;2.28;1.00;;;18.00;65.70;;;;;;10489672;28;20508;-58
2020/12/20 10:01:41;;;;;;;2.90;1.50;;;18.00;65.60;;;;;;10495237;28;20028;-58
2020/12/20 10:06:42;;;;;;;4.80;1.13;;;18.00;65.80;;;;;;10494813;28;20055;-58
2020/12/20 10:11:43;;;;;;;3.45;0.98;;;18.00;65.70;;;;;;10497427;28;20025;-58
2020/12/20 10:16:43;;;;;;;5.30;1.52;;;17.90;65.80;;;;;;10502586;28;20100;-60
2020/12/20 10:21:52;;;;;;;7.32;1.30;;;18.00;66.20;;;;;;10501705;28;20033;-61
2020/12/20 10:26:53;;;;;;;6.78;1.40;;;18.10;67.10;;;;;;10502084;28;20036;-58
2020/12/20 10:31:53;;;;;;;6.15;1.40;;;18.10;67.20;;;;;;10491418;28;20025;-59
2020/12/20 10:36:54;;;;;;;4.03;1.55;;;18.00;67.50;;;;;;10500691;28;20112;-58
2020/12/20 10:41:55;;;;;;;5.13;1.45;;;17.90;68.10;;;;;;10501703;28;20025;-56
2020/12/20 10:46:56;;;;;;;9.95;1.83;;;17.90;68.20;;;;;;10500617;28;20020;-57
2020/12/20 10:51:56;;;;;;;17.13;2.03;;;17.70;68.80;;;;;;10501867;28;20033;-58
2020/12/20 10:56:59;;;;;;;8.00;1.90;;;17.70;69.10;;;;;;10501179;28;20073;-58
2020/12/20 11:02:00;;;;;;;9.05;2.67;;;17.70;69.20;;;;;;10500616;28;20020;-58
2020/12/20 11:07:01;;;;;;;7.20;1.45;;;17.70;69.50;;;;;;10500408;28;20056;-58
2020/12/20 11:12:05;;;;;;;8.32;1.90;;;17.60;69.60;;;;;;10501014;28;20421;-58
2020/12/20 11:17:05;;;;;;;7.30;1.77;;;17.50;69.70;;;;;;10501344;28;20431;-58
2020/12/20 11:22:06;;;;;;;10.13;1.80;;;17.50;69.80;;;;;;10497914;28;20051;-58
2020/12/20 11:27:07;;;;;;;10.63;2.92;;;17.60;69.70;;;;;;10500653;28;20031;-58
2020/12/20 11:32:08;;;;;;;11.90;2.15;;;17.60;69.80;;;;;;10500546;28;20404;-59
2020/12/20 11:37:09;;;;;;;13.13;2.08;;;17.60;69.50;;;;;;10499939;28;20037;-58
2020/12/20 11:42:12;;;;;;;8.38;2.10;;;17.60;69.70;;;;;;10498873;28;20035;-58
2020/12/20 11:47:12;;;;;;;14.82;2.47;;;17.60;69.80;;;;;;10499347;28;20111;-57
2020/12/20 11:52:13;;;;;;;6.50;1.60;;;17.60;70.00;;;;;;10499500;28;20081;-57
2020/12/20 11:57:14;;;;;;;15.68;2.60;;;17.60;70.50;;;;;;10514981;28;20384;-57
2020/12/20 12:02:14;;;;;;;11.30;1.67;;;17.50;70.20;;;;;;10497798;28;20465;-56
2020/12/20 12:07:15;;;;;;;6.65;2.13;;;17.50;70.20;;;;;;10498716;28;20119;-57
2020/12/20 12:12:16;;;;;;;16.42;1.67;;;17.60;69.80;;;;;;10497348;28;20552;-57
2020/12/20 12:17:17;;;;;;;9.00;1.67;;;17.50;70.10;;;;;;10497584;28;20495;-57
2020/12/20 12:22:18;;;;;;;12.98;2.33;;;17.50;70.30;;;;;;10498531;28;20108;-57
2020/12/20 12:27:19;;;;;;;8.95;1.98;;;17.40;70.50;;;;;;10498119;28;20107;-58
2020/12/20 12:32:19;;;;;;;10.18;1.77;;;17.40;70.30;;;;;;10496038;28;20055;-56
2020/12/20 12:37:22;;;;;;;10.07;2.50;;;17.50;70.20;;;;;;10496722;28;20525;-57
2020/12/20 12:42:22;;;;;;;13.65;2.55;;;17.60;70.00;;;;;;10497469;28;20025;-57
2020/12/20 12:47:23;;;;;;;7.82;1.75;;;17.60;69.80;;;;;;10496482;28;20102;-57
2020/12/20 12:52:24;;;;;;;12.20;2.28;;;17.70;69.80;;;;;;10495843;28;20030;-57
2020/12/20 12:57:25;;;;;;;13.15;2.25;;;17.70;69.50;;;;;;10496692;28;20031;-57
2020/12/20 13:02:25;;;;;;;6.22;1.98;;;17.60;69.60;;;;;;10495456;28;20461;-49
2020/12/20 13:07:27;;;;;;;11.38;2.00;;;17.70;69.40;;;;;;10495221;28;20115;-57
2020/12/20 13:12:28;;;;;;;16.48;2.78;;;17.60;69.10;;;;;;10494392;28;20064;-56
2020/12/20 13:17:29;;;;;;;4.75;1.85;;;17.70;68.80;;;;;;10494591;28;20028;-57
2020/12/20 13:22:29;;;;;;;8.02;2.65;;;17.70;68.90;;;;;;10493192;28;20112;-54
2020/12/20 13:27:31;;;;;;;4.57;1.63;;;17.70;69.00;;;;;;10493513;28;20127;-57
2020/12/20 13:32:32;;;;;;;8.70;1.80;;;17.60;69.10;;;;;;10493285;28;20060;-56
2020/12/20 13:37:32;;;;;;;8.40;2.50;;;17.70;69.00;;;;;;10495106;28;20108;-57
2020/12/20 13:42:33;;;;;;;6.50;2.13;;;17.70;68.80;;;;;;10495937;28;20028;-57
2020/12/20 13:47:34;;;;;;;10.07;1.67;;;17.80;68.60;;;;;;10500958;28;20047;-57
2020/12/20 13:52:35;;;;;;;5.30;1.77;;;17.70;68.60;;;;;;10504014;28;20150;-58
2020/12/20 13:57:35;;;;;;;5.20;1.60;;;17.80;68.40;;;;;;10503662;28;20114;-56
2020/12/20 14:02:36;;;;;;;5.30;2.03;;;17.80;68.30;;;;;;10503925;28;20402;-57
2020/12/20 14:07:37;;;;;;;3.40;1.50;;;17.70;68.50;;;;;;10503478;28;20080;-57
2020/12/20 14:12:37;;;;;;;6.07;1.65;;;17.70;68.40;;;;;;10502148;28;20025;-57
2020/12/20 14:17:38;;;;;;;4.30;1.77;;;17.80;68.40;;;;;;10502355;28;20020;-58
2020/12/20 14:22:39;;;;;;;6.20;1.55;;;17.80;68.40;;;;;;10501493;28;20107;-57
2020/12/20 14:27:39;;;;;;;6.57;1.90;;;17.80;68.40;;;;;;10502583;28;20032;-56
2020/12/20 14:32:40;;;;;;;4.35;1.58;;;17.80;68.30;;;;;;10502347;28;20040;-57
2020/12/20 14:37:41;;;;;;;6.20;1.52;;;17.80;68.40;;;;;;10502108;28;20437;-57
2020/12/20 14:42:42;;;;;;;3.13;1.00;;;17.80;68.30;;;;;;10502390;28;20419;-57
2020/12/20 14:47:42;;;;;;;4.32;1.42;;;17.80;68.10;;;;;;10502235;28;20028;-58
2020/12/20 14:52:44;;;;;;;3.92;1.48;;;17.80;68.30;;;;;;10501564;28;20052;-57
2020/12/20 14:57:46;;;;;;;6.03;1.40;;;17.80;68.70;;;;;;10500594;28;20071;-58
2020/12/20 15:02:47;;;;;;;4.18;1.55;;;17.80;68.10;;;;;;10501563;28;20055;-58
2020/12/20 15:07:49;;;;;;;4.55;1.45;;;17.80;68.30;;;;;;10501571;28;20072;-57
2020/12/20 15:12:49;;;;;;;2.90;1.45;;;17.80;68.10;;;;;;10500914;28;20017;-57
2020/12/20 15:17:50;;;;;;;2.95;1.45;;;17.80;68.00;;;;;;10499622;28;20081;-57
2020/12/20 15:22:51;;;;;;;5.72;1.48;;;17.80;68.10;;;;;;10500680;28;20112;-57
2020/12/20 15:27:51;;;;;;;2.95;1.08;;;17.80;68.00;;;;;;10482557;28;20151;-57
2020/12/20 15:32:52;;;;;;;3.97;1.10;;;17.80;67.90;;;;;;10500188;28;20028;-57
2020/12/20 15:37:54;;;;;;;2.95;1.20;;;17.80;68.00;;;;;;10500361;28;20063;-58
2020/12/20 15:42:55;;;;;;;4.07;1.25;;;17.80;68.00;;;;;;10498983;28;20036;-57
2020/12/20 15:47:56;;;;;;;1.88;0.88;;;17.80;67.90;;;;;;10499570;28;20165;-57
2020/12/20 15:52:58;;;;;;;2.85;1.00;;;17.80;67.80;;;;;;10491230;28;20033;-58
2020/12/20 15:57:59;;;;;;;2.03;1.20;;;17.80;67.90;;;;;;10499115;28;20024;-56
2020/12/20 16:02:59;;;;;;;3.50;1.25;;;17.80;68.00;;;;;;10497887;28;20442;-57
2020/12/20 16:08:00;;;;;;;3.58;1.10;;;17.80;67.80;;;;;;10497720;28;20048;-57
2020/12/20 16:13:01;;;;;;;2.33;1.23;;;17.90;67.60;;;;;;10497757;28;20111;-57
2020/12/20 16:18:01;;;;;;;2.90;1.27;;;17.80;67.60;;;;;;10497649;28;20496;-56
2020/12/20 16:23:02;;;;;;;5.72;1.42;;;17.80;67.70;;;;;;10496395;28;20107;-57
2020/12/20 16:28:03;;;;;;;1.60;0.85;;;17.80;67.70;;;;;;10496653;28;20473;-57
2020/12/20 16:33:03;;;;;;;1.90;0.90;;;17.80;67.60;;;;;;10512811;28;20031;-58
2020/12/20 16:38:05;;;;;;;1.80;1.08;;;17.80;67.50;;;;;;10497561;28;20412;-57
2020/12/20 16:43:05;;;;;;;4.00;1.40;;;17.80;67.60;;;;;;10512494;28;20096;-57
2020/12/20 16:48:06;;;;;;;2.60;1.20;;;17.80;67.60;;;;;;10496585;28;20174;-57
2020/12/20 16:53:07;;;;;;;1.45;0.90;;;17.80;67.50;;;;;;10496407;28;20452;-56
2020/12/20 16:58:07;;;;;;;3.40;1.15;;;17.80;67.40;;;;;;10496401;28;20539;-56
2020/12/20 17:03:08;;;;;;;5.15;1.10;;;17.80;67.30;;;;;;10496286;28;20107;-56
2020/12/20 17:08:09;;;;;;;1.80;0.77;;;17.80;67.20;;;;;;10496129;28;20068;-57
2020/12/20 17:13:11;;;;;;;2.63;1.15;;;17.80;67.30;;;;;;10494700;28;20044;-56
2020/12/20 17:18:12;;;;;;;4.10;1.33;;;17.80;67.30;;;;;;10495899;28;20108;-56
2020/12/20 17:23:13;;;;;;;2.63;1.00;;;17.80;67.40;;;;;;10495191;28;20048;-55
2020/12/20 17:28:13;;;;;;;2.65;1.45;;;17.80;67.10;;;;;;10495781;28;20120;-57
2020/12/20 17:33:14;;;;;;;2.10;1.20;;;17.80;67.20;;;;;;10495415;28;20442;-56
2020/12/20 17:38:17;;;;;;;3.35;1.70;;;17.80;67.20;;;;;;10495594;28;20024;-57
2020/12/20 17:43:17;;;;;;;3.17;1.10;;;17.80;67.30;;;;;;10495414;28;20114;-56
2020/12/20 17:48:18;;;;;;;2.45;1.13;;;17.80;67.20;;;;;;10495736;28;20081;-56
2020/12/20 17:53:19;;;;;;;3.20;1.30;;;17.80;67.20;;;;;;10494982;28;20029;-57
2020/12/20 17:58:22;;;;;;;2.72;1.33;;;17.80;67.30;;;;;;10495265;28;20024;-57
2020/12/20 18:03:23;;;;;;;3.15;1.23;;;17.70;67.30;;;;;;10493914;28;20025;-57
2020/12/20 18:08:24;;;;;;;2.13;1.10;;;17.80;67.20;;;;;;10494630;28;20412;-56
2020/12/20 18:13:24;;;;;;;3.20;1.15;;;17.80;67.20;;;;;;10494678;28;20042;-57
2020/12/20 18:18:25;;;;;;;1.90;1.40;;;17.80;67.30;;;;;;10494617;28;20021;-57
2020/12/20 18:23:26;;;;;;;2.25;1.10;;;17.80;67.20;;;;;;10495160;28;20469;-57
2020/12/20 18:28:26;;;;;;;2.10;1.20;;;17.80;67.30;;;;;;10494408;28;20099;-57
2020/12/20 18:33:30;;;;;;;2.65;1.20;;;17.80;67.30;;;;;;10498901;28;20103;-56
2020/12/20 18:38:32;;;;;;;2.78;1.00;;;17.80;67.70;;;;;;10502663;28;20091;-57
2020/12/20 18:43:32;;;;;;;3.67;1.33;;;17.80;67.10;;;;;;10502038;28;20385;-57
2020/12/20 18:48:33;;;;;;;1.70;0.93;;;17.80;67.00;;;;;;10501862;28;20071;-57
2020/12/20 18:53:34;;;;;;;3.00;1.20;;;17.80;67.10;;;;;;10501145;28;20033;-58
2020/12/20 18:58:35;;;;;;;2.40;1.10;;;17.80;67.10;;;;;;10501156;28;20437;-57
2020/12/20 19:03:36;;;;;;;2.05;1.25;;;17.80;67.10;;;;;;10499888;28;20024;-57
2020/12/20 19:08:37;;;;;;;3.22;1.30;;;17.80;67.20;;;;;;10490928;28;20057;-56
2020/12/20 19:13:37;;;;;;;5.43;1.50;;;17.70;67.10;;;;;;10499519;28;20108;-55
2020/12/20 19:18:38;;;;;;;9.52;1.73;;;17.80;67.30;;;;;;10494797;28;20108;-56
2020/12/20 19:23:39;;;;;;;3.40;1.50;;;17.80;67.50;;;;;;10475621;28;20139;-57
2020/12/20 19:28:40;;;;;;;3.10;1.50;;;17.80;67.70;;;;;;10476364;28;20073;-57
2020/12/20 19:33:45;;;;;;;2.75;1.35;;;18.00;67.30;;;;;;10494760;28;20032;-57
2020/12/20 19:38:46;;;;;;;4.53;1.63;;;17.90;67.70;;;;;;10461631;28;20025;-56
2020/12/20 19:43:47;;;;;;;5.03;1.83;;;17.80;68.20;;;;;;10480323;28;20040;-53
2020/12/20 19:48:48;;;;;;;6.13;1.70;;;17.80;68.20;;;;;;10498670;28;20119;-56
2020/12/20 19:54:02;;;;;;;5.20;1.50;;;17.80;68.30;;;;;;10494818;28;20115;-57
2020/12/20 19:59:04;;;;;;;4.25;1.27;;;17.80;68.50;;;;;;10499381;28;20023;-56
2020/12/20 20:04:05;;;;;;;5.70;1.73;;;17.80;68.60;;;;;;10499260;28;20048;-57
2020/12/20 20:09:06;;;;;;;6.65;1.73;;;17.80;68.70;;;;;;10498890;28;20075;-56
2020/12/20 20:14:07;;;;;;;9.98;1.85;;;17.80;68.80;;;;;;10498170;28;20031;-57
2020/12/20 20:19:07;;;;;;;4.10;1.38;;;17.70;68.90;;;;;;10492822;28;20034;-57
2020/12/20 20:24:10;;;;;;;6.10;1.70;;;17.70;69.10;;;;;;10498170;28;20047;-56
2020/12/20 20:29:10;;;;;;;2.58;1.38;;;17.60;69.30;;;;;;10498747;28;20029;-56
2020/12/20 20:34:13;;;;;;;4.65;2.08;;;17.50;69.50;;;;;;10497922;28;20520;-56
2020/12/20 20:39:14;;;;;;;5.72;1.67;;;17.50;69.70;;;;;;10498139;28;20023;-56
2020/12/20 20:44:15;;;;;;;3.17;1.60;;;17.40;69.70;;;;;;10497597;28;20031;-57
2020/12/20 20:49:15;;;;;;;3.70;1.60;;;17.40;69.90;;;;;;10497455;28;20025;-56
2020/12/20 20:54:17;;;;;;;4.25;1.17;;;17.30;70.00;;;;;;10495371;28;20032;-57
2020/12/20 20:59:18;;;;;;;6.05;1.55;;;17.30;70.90;;;;;;10490609;28;20497;-53
2020/12/20 21:04:19;;;;;;;6.43;1.95;;;17.30;70.30;;;;;;10493309;28;20086;-56
2020/12/20 21:09:21;;;;;;;5.80;2.15;;;17.30;70.30;;;;;;10492182;28;20133;-56
2020/12/20 21:14:22;;;;;;;6.05;1.52;;;17.20;70.40;;;;;;10494280;28;20021;-57
2020/12/20 21:19:23;;;;;;;3.55;1.40;;;17.20;70.60;;;;;;10496480;28;20696;-56
2020/12/20 21:24:23;;;;;;;4.60;1.70;;;17.10;71.20;;;;;;10492874;28;20480;-57
2020/12/20 21:29:24;;;;;;;3.15;1.50;;;17.10;70.60;;;;;;10494687;28;20115;-56
2020/12/20 21:34:26;;;;;;;4.45;1.75;;;17.00;70.50;;;;;;10493372;28;20086;-57
2020/12/20 21:39:27;;;;;;;5.05;1.77;;;17.00;70.40;;;;;;10496386;28;20017;-57
2020/12/20 21:44:28;;;;;;;3.75;1.50;;;17.00;70.50;;;;;;10496347;28;20033;-57
2020/12/20 21:49:28;;;;;;;5.00;2.03;;;17.00;70.40;;;;;;10496151;28;20145;-57
2020/12/20 21:54:29;;;;;;;3.28;1.70;;;16.90;70.30;;;;;;10494512;28;20120;-56
2020/12/20 21:59:30;;;;;;;4.00;1.70;;;16.90;70.30;;;;;;10495732;28;20052;-57
2020/12/20 22:04:30;;;;;;;5.00;2.08;;;16.90;70.20;;;;;;10495651;28;20033;-57
2020/12/20 22:09:31;;;;;;;3.78;1.83;;;16.80;70.10;;;;;;10502469;28;20445;-57
2020/12/20 22:14:32;;;;;;;4.90;1.85;;;16.80;70.10;;;;;;10503693;28;20095;-57
2020/12/20 22:19:33;;;;;;;3.70;1.60;;;16.80;70.10;;;;;;10495449;28;20090;-57
2020/12/20 22:24:34;;;;;;;3.50;1.75;;;16.80;70.10;;;;;;10503331;28;20031;-57
2020/12/20 22:29:35;;;;;;;4.53;1.77;;;16.80;70.10;;;;;;10503125;28;20028;-57
2020/12/20 22:34:36;;;;;;;2.60;1.27;;;16.70;70.00;;;;;;10502567;28;20115;-57
2020/12/20 22:39:36;;;;;;;3.28;1.85;;;16.70;70.10;;;;;;10501366;28;20608;-57
2020/12/20 22:44:37;;;;;;;4.18;1.92;;;16.70;70.10;;;;;;10502145;28;20070;-57
2020/12/20 22:49:40;;;;;;;2.85;1.80;;;16.70;70.10;;;;;;10501632;28;20025;-57
2020/12/20 22:54:41;;;;;;;3.83;1.88;;;16.70;70.00;;;;;;10500545;28;20078;-55
2020/12/20 22:59:49;;;;;;;4.50;1.83;;;16.70;70.00;;;;;;10500573;28;20024;-57
2020/12/20 23:04:49;;;;;;;3.75;1.70;;;16.70;70.00;;;;;;10501560;28;20054;-57
2020/12/20 23:09:50;;;;;;;2.58;1.38;;;16.60;69.90;;;;;;10501659;28;20117;-56
2020/12/20 23:14:51;;;;;;;3.25;1.33;;;16.60;70.00;;;;;;10501498;28;20032;-54
2020/12/20 23:19:51;;;;;;;2.83;1.58;;;16.60;70.60;;;;;;10498883;28;20116;-56
2020/12/20 23:24:52;;;;;;;3.85;1.70;;;16.60;69.90;;;;;;10501193;28;20364;-57
2020/12/20 23:29:53;;;;;;;6.30;1.60;;;16.60;69.90;;;;;;10500967;28;20060;-57
2020/12/20 23:34:53;;;;;;;2.88;1.83;;;16.60;69.90;;;;;;10500553;28;20025;-56
2020/12/20 23:39:54;;;;;;;3.58;1.98;;;16.50;69.90;;;;;;10499371;28;20108;-55
2020/12/20 23:44:55;;;;;;;2.60;1.45;;;16.50;69.90;;;;;;10500255;28;20155;-57
2020/12/20 23:49:55;;;;;;;4.82;1.85;;;16.50;69.90;;;;;;10499812;28;20111;-56
2020/12/20 23:54:56;;;;;;;2.00;1.30;;;16.50;69.90;;;;;;10499704;28;20115;-56
2020/12/20 23:59:57;;;;;;;4.40;2.10;;;16.50;69.90;;;;;;10499540;28;20100;-56
